Weather History for KHRT - December, 2013

Change the Weather History Date:

Sunday, December 29, 2013

  Actual Average Record
Temperature  
Mean Temperature 50 °F -  
Max Temperature 57 °F 58 °F 71 °F (2006)
Min Temperature 43 °F 40 °F 28 °F (2010)
Degree Days  
Heating Degree Days 14    
Moisture  
Dew Point 45 °F    
Average Humidity 81    
Maximum Humidity 88    
Minimum Humidity 67    
Precipitation  
Precipitation 0.01 in - - ()
Sea Level Pressure  
Sea Level Pressure 29.99 in    
Wind  
Wind Speed 9 mph (NNW)    
Max Wind Speed 16 mph    
Max Gust Speed -    
Visibility 9 miles    
Events Rain    
Averages and records for this station are not official NWS values.
T = Trace of Precipitation, MM = Missing Value Source: NWS Daily Summary

Daily Weather History Graph

Daily Weather History Graph

Search for Another Location

Airport or City:

Trip Planner

Search our weather history database for the weather conditions in past years. The results will help you decide how hot, cold, wet, or windy it might be!

Date:

Astronomy

Dec. 29, 2013 Rise Set
Actual Time 6:42 AM CST 4:55 PM CST
Civil Twilight 6:16 AM CST 5:21 PM CST
Nautical Twilight 5:46 AM CST 5:51 PM CST
Astronomical Twilight 5:17 AM CST 6:20 PM CST
Moon 3:31 AM CST (12/29) 2:28 PM CST (12/29)
Length of Visible Light 11h 05m
Length of Day
10h 12m
Waning Crescent, 11% of the Moon is Illuminated
Dec 29
Waning Crescent
Jan 1
New
Jan 7
First Quarter
Jan 15
Full
Jan 23
Last Quarter

Hourly Weather History & Observations

Time (CST) Temp. Windchill Dew Point Humidity Pressure Visibility Wind Dir Wind Speed Gust Speed Precip Events Conditions
12:00 AM 53.6 °F - 50.0 °F 88% 29.87 in 1.0 mi NNW 9.2 mph - N/A   Mist
12:15 AM 53.6 °F - 48.2 °F 82% 29.89 in 1.2 mi WNW 11.5 mph - N/A   Overcast
12:18 AM 51.8 °F - 48.2 °F 88% 29.89 in 1.5 mi WNW 12.7 mph - N/A Rain Light Rain
12:23 AM 51.8 °F - 48.2 °F 88% 29.89 in 2.0 mi NW 11.5 mph - N/A Rain Light Rain
12:49 AM 50.0 °F - 46.4 °F 87% 29.89 in 2.0 mi NW 12.7 mph - N/A   Overcast
12:54 AM 50.0 °F - 46.4 °F 87% 29.90 in 3.0 mi NW 10.4 mph - N/A   Overcast
12:58 AM 50.4 °F - 46.6 °F 87% 29.91 in 3.0 mi NW 9.2 mph - 0.00 in   Overcast
1:08 AM 50.0 °F - 46.4 °F 87% 29.91 in 6.0 mi NW 8.1 mph - N/A   Overcast
1:23 AM 50.0 °F - 46.4 °F 87% 29.91 in 10.0 mi NW 11.5 mph - N/A   Overcast
1:43 AM 50.0 °F - 46.4 °F 87% 29.91 in 10.0 mi NNW 9.2 mph - N/A   Overcast
1:58 AM 49.6 °F - 46.0 °F 87% 29.91 in 10.0 mi NNW 8.1 mph - N/A   Overcast
2:32 AM 50.0 °F - 46.4 °F 87% 29.90 in 10.0 mi NNW 9.2 mph - N/A Rain Light Rain
2:37 AM 50.0 °F - 44.6 °F 82% 29.89 in 10.0 mi NNW 8.1 mph - N/A   Overcast
2:49 AM 50.0 °F - 44.6 °F 82% 29.90 in 10.0 mi NW 10.4 mph - N/A Rain Light Rain
2:58 AM 49.3 °F - 45.3 °F 86% 29.92 in 10.0 mi NW 10.4 mph - 0.00 in Rain Light Rain
3:03 AM 50.0 °F - 44.6 °F 82% 29.92 in 10.0 mi NW 10.4 mph - N/A Rain Light Rain
3:13 AM 48.2 °F - 44.6 °F 87% 29.91 in 10.0 mi NNW 6.9 mph - N/A Rain Light Rain
3:15 AM 48.2 °F - 44.6 °F 87% 29.90 in 10.0 mi NNW 8.1 mph - N/A   Overcast
3:25 AM 50.0 °F - 44.6 °F 82% 29.91 in 10.0 mi NNW 8.1 mph - N/A   Overcast
3:35 AM 48.2 °F - 44.6 °F 87% 29.91 in 10.0 mi NNW 5.8 mph - N/A   Overcast
3:45 AM 48.2 °F - 44.6 °F 87% 29.95 in 10.0 mi WNW 9.2 mph - N/A   Overcast
3:58 AM 48.9 °F - 45.0 °F 86% 29.95 in 10.0 mi NW 8.1 mph - 0.00 in   Overcast
4:58 AM 48.7 °F - 44.4 °F 85% 29.92 in 10.0 mi North 5.8 mph - N/A   Overcast
5:28 AM 48.2 °F - 44.6 °F 87% 29.95 in 10.0 mi NNW 5.8 mph - N/A   Overcast
5:48 AM 48.2 °F - 44.6 °F 87% 29.96 in 10.0 mi NW 3.5 mph - N/A   Overcast
5:53 AM 48.2 °F - 44.6 °F 87% 29.97 in 10.0 mi NW 4.6 mph - N/A   Overcast
5:58 AM 48.2 °F - 44.6 °F 87% 29.98 in 10.0 mi NW 3.5 mph - N/A   Overcast
6:38 AM 48.2 °F - 42.8 °F 82% 29.98 in 10.0 mi NNW 5.8 mph - N/A   Overcast
6:58 AM 48.2 °F - 43.7 °F 84% 30.00 in 10.0 mi North 5.8 mph - N/A   Overcast
7:58 AM 48.7 °F - 44.2 °F 84% 30.03 in 10.0 mi North 9.2 mph - N/A   Overcast
8:16 AM 48.2 °F - 44.6 °F 87% 30.03 in 10.0 mi NNW 5.8 mph - N/A Rain Light Rain
8:25 AM 48.2 °F - 44.6 °F 87% 30.03 in 10.0 mi NNW 5.8 mph - N/A   Overcast
8:58 AM 49.3 °F - 44.8 °F 84% 30.06 in 10.0 mi NNW 8.1 mph - 0.00 in   Overcast
9:38 AM 50.0 °F - 46.4 °F 87% 30.06 in 10.0 mi NNW 10.4 mph - N/A   Overcast
9:58 AM 51.1 °F - 45.9 °F 82% 30.06 in 10.0 mi North 11.5 mph - N/A   Overcast
9:59 AM 51.8 °F - 46.4 °F 82% 30.05 in 10.0 mi North 11.5 mph - N/A Rain Light Rain
10:08 AM 51.8 °F - 46.4 °F 82% 30.05 in 10.0 mi NNW 13.8 mph - N/A   Overcast
10:53 AM 53.6 °F - 46.4 °F 77% 30.04 in 10.0 mi North 9.2 mph - N/A   Overcast
10:58 AM 53.2 °F - 46.6 °F 78% 30.05 in 10.0 mi NNW 9.2 mph - 0.00 in   Overcast
11:13 AM 55.4 °F - 46.4 °F 72% 30.03 in 10.0 mi North 11.5 mph - N/A   Overcast
11:18 AM 55.4 °F - 46.4 °F 72% 30.03 in 10.0 mi North 12.7 mph - N/A   Overcast
11:28 AM 55.4 °F - 46.4 °F 72% 30.02 in 10.0 mi North 12.7 mph - N/A Rain Light Rain
11:38 AM 55.4 °F - 46.4 °F 72% 30.02 in 10.0 mi North 12.7 mph - N/A   Overcast
11:53 AM 57.2 °F - 46.4 °F 67% 30.02 in 10.0 mi North 15.0 mph - N/A Rain Light Rain
11:58 AM 56.7 °F - 46.9 °F 70% 30.02 in 10.0 mi North 16.1 mph - 0.01 in Rain Light Rain
12:03 PM 57.2 °F - 46.4 °F 67% 30.01 in 10.0 mi North 15.0 mph - N/A   Overcast
12:25 PM 57.2 °F - 46.4 °F 67% 30.01 in 10.0 mi North 12.7 mph - N/A Rain Light Rain
12:35 PM 57.2 °F - 46.4 °F 67% 30.01 in 10.0 mi North 11.5 mph - N/A   Overcast
12:58 PM 56.3 °F - 46.0 °F 68% 30.01 in 10.0 mi NNE 10.4 mph - 0.00 in   Overcast
1:38 PM 57.2 °F - 46.4 °F 67% 30.00 in 10.0 mi NNE 10.4 mph - N/A   Overcast
1:58 PM 56.1 °F - 45.9 °F 68% 30.01 in 10.0 mi NNE 12.7 mph - N/A   Overcast
2:58 PM 56.5 °F - 45.5 °F 67% 30.01 in 10.0 mi North 9.2 mph - N/A   Overcast
3:23 PM 55.4 °F - 44.6 °F 67% 30.00 in 10.0 mi NNE 11.5 mph - N/A   Overcast
3:43 PM 53.6 °F - 44.6 °F 72% 30.01 in 10.0 mi NNE 10.4 mph - N/A   Scattered Clouds
3:58 PM 54.1 °F - 44.1 °F 69% 30.03 in 10.0 mi North 10.4 mph - N/A   Partly Cloudy
4:58 PM 52.2 °F - 43.3 °F 72% 30.04 in 10.0 mi North 6.9 mph - N/A   Scattered Clouds
5:58 PM 48.6 °F - 42.3 °F 79% 30.06 in 10.0 mi North 4.6 mph - N/A   Clear
6:58 PM 48.4 °F - 42.4 °F 80% 30.08 in 10.0 mi North 2.3 mph - N/A   Clear
7:58 PM 46.2 °F 45.0 °F 41.4 °F 83% 30.09 in 10.0 mi North 3.5 mph - N/A   Clear
8:58 PM 45.9 °F - 41.4 °F 84% 30.10 in 10.0 mi Calm Calm - N/A   Clear
9:58 PM 45.9 °F - 41.4 °F 84% 30.11 in 10.0 mi Calm Calm - N/A   Clear
10:58 PM 44.8 °F - 40.3 °F 84% 30.12 in 10.0 mi Calm Calm - N/A   Clear
11:58 PM 43.9 °F 42.3 °F 39.6 °F 85% 30.13 in 10.0 mi North 3.5 mph - N/A   Clear